.
WxDataArchive / Data Records for 2010-01-14
2010-01-13 January 2010 2010-01-15

Data Records for Thursday, 14 January 2010

Time	Temp	Chill	HIndex	Humid	Dewpt	 Wind 	HiWind	WindDir	Rain 	Barom 
-----	----	-----	------	-----	-----	------	------	-------	-----	----- 
00:00	28.2	28.2	28.2	71	20.0	1	4	248	0.00	30.167 
00:05	28.2	28.2	28.2	71	20.0	1	3	248	0.00	30.167 
00:10	28.2	28.2	28.2	71	20.0	1	3	248	0.00	30.167 
00:15	28.1	28.1	28.1	71	19.9	0	2	248	0.00	30.163 
00:20	27.9	27.9	27.9	72	20.1	1	4	248	0.00	30.163 
00:25	27.9	27.9	27.9	72	20.1	1	3	248	0.00	30.163 
00:30	27.9	27.9	27.9	72	20.1	0	2	248	0.00	30.160 
00:35	27.9	27.9	27.9	72	20.1	1	5	248	0.00	30.160 
00:40	27.9	27.9	27.9	73	20.4	1	4	248	0.00	30.160 
00:45	27.9	27.9	27.9	73	20.4	1	3	248	0.00	30.155 
00:50	27.9	27.9	27.9	73	20.4	1	5	248	0.00	30.155 
00:55	27.9	27.9	27.9	73	20.4	1	4	248	0.00	30.155 
01:00	27.9	27.9	27.9	73	20.4	1	3	248	0.00	30.154 
01:05	27.8	27.8	27.8	73	20.3	0	2	248	0.00	30.154 
01:10	27.8	27.8	27.8	73	20.3	1	4	248	0.00	30.154 
01:15	27.8	27.8	27.8	73	20.3	1	3	248	0.00	30.153 
01:20	27.8	27.8	27.8	73	20.3	1	3	248	0.00	30.153 
01:25	27.8	27.8	27.8	73	20.3	1	4	248	0.00	30.153 
01:30	27.8	27.8	27.8	73	20.3	1	3	248	0.00	30.153 
01:35	27.8	27.8	27.8	73	20.3	1	5	248	0.00	30.153 
01:40	27.8	27.8	27.8	73	20.3	1	4	270	0.00	30.153 
01:45	27.6	27.6	27.6	73	20.1	0	2	270	0.00	30.153 
01:50	27.5	27.5	27.5	74	20.3	1	4	248	0.00	30.153 
01:55	27.5	27.5	27.5	74	20.3	1	4	248	0.00	30.153 
02:00	27.5	27.5	27.5	74	20.3	1	3	248	0.00	30.154 
02:05	27.5	27.5	27.5	75	20.6	0	3	248	0.00	30.154 
02:10	27.5	27.5	27.5	75	20.6	1	4	248	0.00	30.154 
02:15	27.5	27.5	27.5	75	20.6	1	5	270	0.00	30.153 
02:20	27.5	27.5	27.5	75	20.6	1	5	248	0.00	30.153 
02:25	27.5	27.5	27.5	75	20.6	1	4	248	0.00	30.153 
02:30	27.6	27.6	27.6	75	20.7	2	4	248	0.00	30.155 
02:35	27.6	27.6	27.6	75	20.7	1	5	248	0.00	30.155 
02:40	27.8	27.8	27.8	75	20.9	2	6	225	0.00	30.155 
02:45	27.8	27.8	27.8	75	20.9	1	6	248	0.00	30.160 
02:50	27.8	27.8	27.8	75	20.9	1	5	248	0.00	30.160 
02:55	27.8	27.8	27.8	75	20.9	1	5	270	0.00	30.160 
03:00	27.6	27.6	27.6	75	20.7	1	3	270	0.00	30.157 
03:05	27.6	27.6	27.6	75	20.7	1	3	248	0.00	30.157 
03:10	27.6	27.6	27.6	75	20.7	2	5	248	0.00	30.157 
03:15	27.8	27.8	27.8	75	20.9	1	5	248	0.00	30.160 
03:20	27.6	27.6	27.6	75	20.7	1	5	225	0.00	30.160 
03:25	27.6	27.6	27.6	75	20.7	1	5	225	0.00	30.160 
03:30	27.6	27.6	27.6	75	20.7	1	3	225	0.00	30.160 
03:35	27.5	27.5	27.5	75	20.6	1	3	225	0.00	30.160 
03:40	27.5	27.5	27.5	75	20.6	1	3	248	0.00	30.160 
03:45	27.5	27.5	27.5	75	20.6	1	5	270	0.00	30.156 
03:50	27.3	27.3	27.3	75	20.4	1	3	270	0.00	30.156 
03:55	27.3	27.3	27.3	76	20.8	1	6	225	0.00	30.156 
04:00	27.3	27.3	27.3	75	20.4	1	5	248	0.00	30.157 
04:05	27.3	27.3	27.3	75	20.4	1	4	248	0.00	30.157 
04:10	27.3	27.3	27.3	75	20.4	1	3	270	0.00	30.157 
04:15	27.3	27.3	27.3	75	20.4	1	3	248	0.00	30.155 
04:20	27.3	27.3	27.3	75	20.4	1	4	248	0.00	30.155 
04:25	27.2	27.2	27.2	75	20.3	1	4	248	0.00	30.155 
04:30	27.2	27.2	27.2	75	20.3	1	4	248	0.00	30.155 
04:35	27.2	27.2	27.2	75	20.3	1	3	248	0.00	30.155 
04:40	27.2	27.2	27.2	75	20.3	1	3	270	0.00	30.155 
04:45	27.2	27.2	27.2	75	20.3	1	3	248	0.00	30.152 
04:50	27.2	27.2	27.2	75	20.3	1	4	248	0.00	30.152 
04:55	27.0	27.0	27.0	75	20.2	0	3	248	0.00	30.152 
05:00	27.0	27.0	27.0	75	20.2	0	2	248	0.00	30.147 
05:05	26.9	26.9	26.9	75	20.1	0	2	248	0.00	30.147 
05:10	26.9	26.9	26.9	75	20.1	1	3	248	0.00	30.147 
05:15	26.9	26.9	26.9	75	20.1	0	3	248	0.00	30.146 
05:20	26.7	26.7	26.7	75	19.9	0	1	248	0.00	30.146 
05:25	26.6	26.6	26.6	75	19.8	0	2	248	0.00	30.146 
05:30	26.6	26.6	26.6	75	19.8	0	1	248	0.00	30.145 
05:35	26.6	26.6	26.6	75	19.8	1	3	248	0.00	30.145 
05:40	26.6	26.6	26.6	75	19.8	0	2	248	0.00	30.145 
05:45	26.6	26.6	26.6	75	19.8	1	3	248	0.00	30.144 
05:50	26.7	26.7	26.7	75	19.9	1	4	248	0.00	30.144 
05:55	26.7	26.7	26.7	75	19.9	0	3	248	0.00	30.144 
06:00	26.7	26.7	26.7	75	19.9	1	2	248	0.00	30.145 
06:05	26.7	26.7	26.7	75	19.9	1	3	248	0.00	30.145 
06:10	26.7	26.7	26.7	75	19.9	1	4	248	0.00	30.145 
06:15	26.9	26.9	26.9	75	20.1	1	4	315	0.00	30.144 
06:20	27.0	27.0	27.0	74	19.8	1	4	248	0.00	30.144 
06:25	26.9	26.9	26.9	74	19.7	1	3	248	0.00	30.144 
06:30	27.0	27.0	27.0	74	19.8	1	4	248	0.00	30.143 
06:35	27.0	27.0	27.0	74	19.8	1	4	248	0.00	30.143 
06:40	27.0	27.0	27.0	74	19.8	1	5	248	0.00	30.143 
06:45	27.0	27.0	27.0	74	19.8	1	4	248	0.00	30.142 
06:50	26.9	26.9	26.9	74	19.7	1	4	248	0.00	30.142 
06:55	26.9	26.9	26.9	74	19.7	1	4	248	0.00	30.142 
07:00	26.9	26.9	26.9	74	19.7	1	4	248	0.00	30.145 
07:05	26.9	26.9	26.9	74	19.7	1	4	248	0.00	30.145 
07:10	26.9	26.9	26.9	74	19.7	1	5	248	0.00	30.145 
07:15	26.9	26.9	26.9	74	19.7	1	3	248	0.00	30.152 
07:20	26.7	26.7	26.7	74	19.5	1	4	248	0.00	30.152 
07:25	26.6	26.6	26.6	74	19.5	1	3	248	0.00	30.152 
07:30	26.6	26.6	26.6	74	19.5	1	4	248	0.00	30.149 
07:35	26.6	26.6	26.6	74	19.5	1	3	248	0.00	30.149 
07:40	26.4	26.4	26.4	74	19.3	1	3	248	0.00	30.149 
07:45	26.4	26.4	26.4	74	19.3	1	3	270	0.00	30.148 
07:50	26.4	26.4	26.4	75	19.6	1	3	248	0.00	30.148 
07:55	26.4	26.4	26.4	75	19.6	1	4	225	0.00	30.148 
08:00	26.4	26.4	26.4	74	19.3	1	3	225	0.00	30.150 
08:05	26.4	26.4	26.4	75	19.6	1	5	270	0.00	30.150 
08:10	26.4	26.4	26.4	74	19.3	1	3	248	0.00	30.150 
08:15	26.4	26.4	26.4	74	19.3	1	4	248	0.00	30.157 
08:20	26.4	26.4	26.4	74	19.3	1	3	248	0.00	30.157 
08:25	26.6	26.6	26.6	74	19.5	1	3	248	0.00	30.157 
08:30	26.6	26.6	26.6	74	19.5	1	5	248	0.00	30.157 
08:35	26.9	26.9	26.9	74	19.7	1	3	248	0.00	30.157 
08:40	27.0	27.0	27.0	73	19.5	1	4	248	0.00	30.157 
08:45	27.2	27.2	27.2	73	19.7	1	6	248	0.00	30.157 
08:50	27.5	27.5	27.5	73	20.0	2	5	248	0.00	30.157 
08:55	27.6	27.6	27.6	72	19.8	2	4	248	0.00	30.157 
09:00	27.9	27.9	27.9	72	20.1	1	4	248	0.00	30.159 
09:05	28.1	28.1	28.1	71	19.9	1	4	248	0.00	30.159 
09:10	28.4	28.4	28.4	71	20.2	1	6	248	0.00	30.159 
09:15	28.5	28.5	28.5	70	20.0	2	4	248	0.00	30.160 
09:20	28.8	28.8	28.8	70	20.3	1	4	248	0.00	30.160 
09:25	29.1	29.1	29.1	70	20.6	1	4	225	0.00	30.160 
09:30	29.4	29.4	29.4	69	20.5	1	4	248	0.00	30.159 
09:35	29.7	29.7	29.7	69	20.8	1	5	248	0.00	30.159 
09:40	30.0	30.0	30.0	68	20.7	1	4	248	0.00	30.159 
09:45	30.4	30.4	30.4	67	20.8	1	4	248	0.00	30.163 
09:50	30.7	30.7	30.7	67	21.1	2	7	248	0.00	30.163 
09:55	31.0	31.0	31.0	66	21.0	2	6	225	0.00	30.163 
10:00	31.2	31.2	31.2	66	21.2	2	9	225	0.00	30.164 
10:05	31.3	31.3	31.3	65	20.9	2	5	248	0.00	30.164 
10:10	31.3	31.3	31.3	66	21.3	1	4	248	0.00	30.164 
10:15	31.6	31.6	31.6	66	21.6	2	6	225	0.00	30.162 
10:20	32.1	32.1	32.1	65	21.7	2	5	248	0.00	30.162 
10:25	32.4	32.4	32.4	65	22.0	2	5	248	0.00	30.162 
10:30	32.8	32.8	32.8	65	22.3	1	6	225	0.00	30.162 
10:35	33.2	33.2	33.2	64	22.4	3	7	248	0.00	30.162 
10:40	33.5	33.5	33.5	64	22.6	1	4	248	0.00	30.162 
10:45	33.8	33.8	33.8	63	22.6	2	7	248	0.00	30.167 
10:50	34.1	34.1	34.1	63	22.8	2	7	248	0.00	30.167 
10:55	34.3	34.3	34.3	62	22.7	3	7	248	0.00	30.167 
11:00	34.6	34.6	34.6	63	23.3	2	6	248	0.00	30.166 
11:05	34.9	34.9	34.9	62	23.2	2	5	248	0.00	30.166 
11:10	35.0	35.0	35.0	62	23.3	2	6	248	0.00	30.166 
11:15	35.5	35.5	35.5	62	23.8	2	4	248	0.00	30.161 
11:20	35.8	35.8	35.8	62	24.1	1	3	248	0.00	30.161 
11:25	35.9	35.9	35.9	61	23.8	2	6	248	0.00	30.161 
11:30	36.0	36.0	36.0	61	23.9	2	5	248	0.00	30.152 
11:35	36.2	36.2	36.2	61	24.1	1	3	248	0.00	30.152 
11:40	36.3	36.3	36.3	61	24.2	2	5	248	0.00	30.152 
11:45	36.3	36.3	36.3	61	24.2	2	9	248	0.00	30.150 
11:50	36.5	36.5	36.5	62	24.7	1	5	248	0.00	30.150 
11:55	36.5	36.5	36.5	61	24.3	2	5	248	0.00	30.150 
12:00	36.8	36.8	36.8	61	24.6	2	5	248	0.00	30.141 
12:05	37.2	37.2	37.2	61	25.0	1	4	292	0.00	30.141 
12:10	37.3	37.3	37.3	61	25.1	2	7	270	0.00	30.141 
12:15	37.5	37.5	37.5	61	25.3	2	5	270	0.00	30.130 
12:20	37.6	37.6	37.6	61	25.4	1	5	270	0.00	30.130 
12:25	37.8	37.8	37.8	60	25.2	3	7	248	0.00	30.130 
12:30	37.9	37.9	37.9	61	25.7	1	4	248	0.00	30.118 
12:35	38.0	38.0	38.0	61	25.8	1	4	292	0.00	30.118 
12:40	38.2	38.2	38.2	61	26.0	2	6	248	0.00	30.118 
12:45	38.3	38.3	38.3	61	26.0	2	6	248	0.01	30.115 
12:50	38.5	38.5	38.5	61	26.2	3	7	248	0.00	30.115 
12:55	38.8	38.8	38.8	60	26.1	2	6	270	0.01	30.115 
13:00	38.9	38.9	38.9	61	26.6	3	9	248	0.00	30.106 
13:05	38.9	38.9	38.9	61	26.6	3	8	248	0.00	30.106 
13:10	39.1	39.1	39.1	61	26.8	2	9	248	0.00	30.106 
13:15	39.2	39.2	39.2	61	26.9	2	7	248	0.01	30.102 
13:20	39.2	39.2	39.2	60	26.5	2	5	248	0.00	30.102 
13:25	39.2	39.2	39.2	61	26.9	3	7	248	0.00	30.102 
13:30	39.1	39.1	39.1	61	26.8	3	7	248	0.01	30.100 
13:35	38.9	38.9	38.9	62	27.0	3	10	248	0.00	30.100 
13:40	39.2	39.2	39.2	62	27.3	2	5	248	0.01	30.100 
13:45	39.3	39.3	39.3	62	27.4	2	5	248	0.00	30.100 
13:50	39.5	39.5	39.5	62	27.6	2	4	248	0.00	30.100 
13:55	39.5	39.5	39.5	61	27.2	2	7	270	0.01	30.100 
14:00	39.2	39.2	39.2	62	27.3	3	10	248	0.00	30.096 
14:05	39.2	39.2	39.2	62	27.3	2	6	248	0.01	30.096 
14:10	39.3	39.3	39.3	63	27.8	2	6	248	0.00	30.096 
14:15	39.5	39.5	39.5	62	27.6	2	5	225	0.01	30.087 
14:20	39.5	39.5	39.5	62	27.6	3	9	248	0.00	30.087 
14:25	39.5	39.5	39.5	63	28.0	2	5	248	0.00	30.087 
14:30	39.6	39.6	39.6	63	28.1	2	5	248	0.00	30.083 
14:35	39.8	39.8	39.8	63	28.2	2	7	248	0.00	30.083 
14:40	39.6	39.6	39.6	63	28.1	3	7	248	0.01	30.083 
14:45	39.5	39.5	39.5	63	28.0	2	6	248	0.00	30.085 
14:50	39.3	39.3	39.3	64	28.2	2	7	248	0.01	30.085 
14:55	39.3	39.3	39.3	64	28.2	2	7	248	0.00	30.085 
15:00	39.3	39.3	39.3	64	28.2	2	6	248	0.00	30.090 
15:05	39.5	39.5	39.5	64	28.3	1	4	270	0.01	30.090 
15:10	39.5	39.5	39.5	64	28.3	3	7	248	0.00	30.090 
15:15	39.5	39.5	39.5	64	28.3	2	9	248	0.01	30.094 
15:20	39.5	39.5	39.5	64	28.3	2	5	248	0.00	30.094 
15:25	39.5	39.5	39.5	65	28.7	2	6	248	0.00	30.094 
15:30	39.5	39.5	39.5	65	28.7	1	6	248	0.01	30.093 
15:35	39.6	39.6	39.6	65	28.8	2	5	248	0.00	30.093 
15:40	39.6	39.6	39.6	64	28.4	1	5	248	0.01	30.093 
15:45	39.8	39.8	39.8	65	29.0	1	7	248	0.00	30.092 
15:50	40.1	40.1	40.1	64	28.9	2	5	248	0.00	30.092 
15:55	40.3	40.3	40.3	64	29.1	1	5	248	0.01	30.092 
16:00	40.6	40.6	40.6	63	29.0	2	4	270	0.00	30.095 
16:05	40.5	40.5	40.5	63	28.9	2	6	248	0.00	30.095 
16:10	40.2	40.2	40.2	63	28.6	2	5	248	0.00	30.095 
16:15	40.2	40.2	40.2	64	29.0	2	9	225	0.01	30.095 
16:20	40.2	40.2	40.2	64	29.0	1	3	248	0.00	30.095 
16:25	40.2	40.2	40.2	64	29.0	1	5	248	0.00	30.095 
16:30	40.1	40.1	40.1	64	28.9	2	6	248	0.01	30.094 
16:35	39.9	39.9	39.9	65	29.1	2	6	248	0.00	30.094 
16:40	39.8	39.8	39.8	65	29.0	2	6	270	0.00	30.094 
16:45	39.6	39.6	39.6	65	28.8	2	5	248	0.00	30.098 
16:50	39.5	39.5	39.5	65	28.7	2	5	248	0.00	30.098 
16:55	39.2	39.2	39.2	66	28.8	3	6	270	0.00	30.098 
17:00	39.2	39.2	39.2	66	28.8	2	5	248	0.01	30.099 
17:05	39.1	39.1	39.1	67	29.1	2	6	248	0.00	30.099 
17:10	38.8	38.8	38.8	67	28.8	2	7	248	0.00	30.099 
17:15	38.6	38.6	38.6	67	28.6	3	6	248	0.00	30.105 
17:20	38.6	38.6	38.6	68	29.0	2	6	248	0.00	30.105 
17:25	38.5	38.5	38.5	68	28.9	3	7	248	0.00	30.105 
17:30	38.3	38.3	38.3	68	28.7	2	5	248	0.00	30.112 
17:35	38.2	38.2	38.2	69	28.9	1	6	248	0.01	30.112 
17:40	37.9	37.9	37.9	69	28.7	1	3	248	0.00	30.112 
17:45	37.8	37.8	37.8	70	28.9	1	3	225	0.00	30.110 
17:50	37.8	37.8	37.8	70	28.9	2	6	225	0.00	30.110 
17:55	37.8	37.8	37.8	70	28.9	1	5	270	0.00	30.110 
18:00	37.8	37.8	37.8	70	28.9	1	3	248	0.00	30.106 
18:05	37.6	37.6	37.6	71	29.1	1	4	248	0.00	30.106 
18:10	37.6	37.6	37.6	71	29.1	1	3	248	0.00	30.106 
18:15	37.6	37.6	37.6	71	29.1	1	3	248	0.00	30.113 
18:20	37.6	37.6	37.6	71	29.1	1	5	248	0.00	30.113 
18:25	37.6	37.6	37.6	71	29.1	1	3	315	0.00	30.113 
18:30	37.5	37.5	37.5	71	29.0	0	3	270	0.00	30.101 
18:35	37.3	37.3	37.3	72	29.1	1	4	248	0.00	30.101 
18:40	37.3	37.3	37.3	72	29.1	1	4	248	0.01	30.101 
18:45	37.5	37.5	37.5	71	29.0	2	7	270	0.00	30.107 
18:50	37.5	37.5	37.5	71	29.0	1	4	225	0.00	30.107 
18:55	37.5	37.5	37.5	71	29.0	2	6	248	0.00	30.107 
19:00	37.6	37.6	37.6	71	29.1	2	5	248	0.00	30.123 
19:05	37.6	37.6	37.6	71	29.1	2	6	248	0.00	30.123 
19:10	37.8	37.8	37.8	71	29.3	2	6	248	0.00	30.123 
19:15	37.9	37.9	37.9	71	29.4	2	6	225	0.00	30.126 
19:20	38.0	38.0	38.0	71	29.4	2	4	248	0.00	30.126 
19:25	38.0	38.0	38.0	71	29.4	1	5	248	0.01	30.126 
19:30	37.9	37.9	37.9	71	29.4	1	6	248	0.00	30.126 
19:35	37.8	37.8	37.8	71	29.3	1	4	248	0.00	30.126 
19:40	37.8	37.8	37.8	72	29.6	1	3	248	0.00	30.126 
19:45	37.8	37.8	37.8	72	29.6	2	4	248	0.00	30.133 
19:50	37.8	37.8	37.8	72	29.6	1	4	248	0.00	30.133 
19:55	37.8	37.8	37.8	72	29.6	1	3	248	0.00	30.133 
20:00	37.8	37.8	37.8	73	29.9	1	3	248	0.01	30.135 
20:05	37.8	37.8	37.8	73	29.9	1	4	248	0.00	30.135 
20:10	37.8	37.8	37.8	73	29.9	1	4	248	0.00	30.135 
20:15	37.8	37.8	37.8	73	29.9	1	4	248	0.00	30.138 
20:20	37.8	37.8	37.8	73	29.9	1	4	248	0.00	30.138 
20:25	37.8	37.8	37.8	73	29.9	1	4	248	0.00	30.138 
20:30	37.9	37.9	37.9	73	30.0	1	3	248	0.00	30.136 
20:35	37.9	37.9	37.9	73	30.0	1	3	248	0.00	30.136 
20:40	38.0	38.0	38.0	73	30.1	1	4	248	0.00	30.136 
20:45	38.2	38.2	38.2	73	30.3	2	5	248	0.00	30.142 
20:50	38.3	38.3	38.3	73	30.4	1	7	248	0.01	30.142 
20:55	38.3	38.3	38.3	73	30.4	2	6	248	0.00	30.142 
21:00	38.5	38.5	38.5	73	30.6	1	4	270	0.00	30.139 
21:05	38.5	38.5	38.5	73	30.6	1	4	248	0.00	30.139 
21:10	38.3	38.3	38.3	73	30.4	1	3	248	0.00	30.139 
21:15	38.3	38.3	38.3	73	30.4	2	6	248	0.00	30.139 
21:20	38.3	38.3	38.3	73	30.4	1	4	248	0.01	30.139 
21:25	38.3	38.3	38.3	74	30.8	1	4	248	0.00	30.139 
21:30	38.3	38.3	38.3	74	30.8	1	4	248	0.00	30.140 
21:35	38.3	38.3	38.3	74	30.8	1	4	248	0.00	30.140 
21:40	38.3	38.3	38.3	74	30.8	2	7	225	0.00	30.140 
21:45	38.3	38.3	38.3	74	30.8	2	5	248	0.00	30.142 
21:50	38.5	38.5	38.5	74	30.9	2	5	270	0.00	30.142 
21:55	38.5	38.5	38.5	74	30.9	2	5	248	0.00	30.142 
22:00	38.6	38.6	38.6	74	31.0	2	8	248	0.01	30.138 
22:05	38.6	38.6	38.6	74	31.0	2	4	248	0.00	30.138 
22:10	38.6	38.6	38.6	73	30.7	1	4	248	0.00	30.138 
22:15	38.6	38.6	38.6	74	31.0	2	5	248	0.00	30.133 
22:20	38.6	38.6	38.6	74	31.0	2	6	248	0.00	30.133 
22:25	38.6	38.6	38.6	74	31.0	2	5	248	0.00	30.133 
22:30	38.8	38.8	38.8	74	31.2	2	7	248	0.01	30.137 
22:35	38.8	38.8	38.8	74	31.2	2	5	248	0.00	30.137 
22:40	38.8	38.8	38.8	74	31.2	2	9	248	0.00	30.137 
22:45	38.8	38.8	38.8	74	31.2	2	6	248	0.00	30.138 
22:50	38.8	38.8	38.8	74	31.2	2	5	248	0.00	30.138 
22:55	38.8	38.8	38.8	74	31.2	2	5	248	0.00	30.138 
23:00	38.8	38.8	38.8	74	31.2	2	6	248	0.00	30.140 
23:05	38.9	38.9	38.9	75	31.7	2	5	248	0.01	30.140 
23:10	38.9	38.9	38.9	75	31.7	2	4	248	0.00	30.140 
23:15	38.9	38.9	38.9	74	31.3	2	6	248	0.00	30.137 
23:20	38.9	38.9	38.9	75	31.7	2	3	248	0.00	30.137 
23:25	38.8	38.8	38.8	75	31.6	3	5	248	0.00	30.137 
23:30	38.8	38.8	38.8	75	31.6	1	6	248	0.00	30.139 
23:35	38.6	38.6	38.6	75	31.4	2	5	248	0.00	30.139 
23:40	38.6	38.6	38.6	76	31.7	2	4	248	0.01	30.139 
23:45	38.6	38.6	38.6	76	31.7	1	4	270	0.00	30.141 
23:50	38.6	38.6	38.6	76	31.7	2	6	248	0.00	30.141 
23:55	38.6	38.6	38.6	77	32.0	2	6	248	0.00	30.141 

CoCoRaHS
IN-AL-39
A2 Web Hosting
Creative Commons License
GoDaddy
search engine by freefind advanced

loaded 2018-11-20 02:23:39 • last modified 2010-11-18 10:43:29
Privacy PolicyDisclaimer
• wx.awcolley.com is powered by PmWiki v.2002016 •
• all content (unless otherwise noted) © 2018 A W Colley